createdAt,value
2022-11-16T00:01:42.500Z,97875.81
2022-11-16T00:04:12.434Z,97877.00
2022-11-16T00:06:40.257Z,97874.22
2022-11-16T00:09:23.681Z,97873.13
2022-11-16T00:11:53.805Z,97868.22
2022-11-16T00:14:24.867Z,97860.16
2022-11-16T00:16:53.123Z,97858.78
2022-11-16T00:19:20.941Z,97874.22
2022-11-16T00:21:48.897Z,97873.31
2022-11-16T00:24:18.564Z,97859.78
2022-11-16T00:26:47.232Z,97862.59
2022-11-16T00:29:16.591Z,97862.03
2022-11-16T00:31:46.471Z,97856.38
2022-11-16T00:34:14.933Z,97856.22
2022-11-16T00:36:42.865Z,97853.84
2022-11-16T00:39:12.669Z,97855.63
2022-11-16T00:41:40.740Z,97865.59
2022-11-16T00:44:08.846Z,97856.44
2022-11-16T00:46:36.808Z,97849.03
2022-11-16T00:49:06.636Z,97849.84
2022-11-16T00:51:34.988Z,97851.38
2022-11-16T00:54:03.253Z,97852.19
2022-11-16T00:56:32.589Z,97853.63
2022-11-16T00:59:01.524Z,97856.06
2022-11-16T01:01:29.453Z,97847.50
2022-11-16T01:03:57.270Z,97855.84
2022-11-16T01:06:26.524Z,97857.75
2022-11-16T01:08:54.366Z,97869.72
2022-11-16T01:11:41.933Z,97868.31
2022-11-16T01:14:10.519Z,97872.56
2022-11-16T01:16:38.612Z,97879.13
2022-11-16T01:19:07.129Z,97880.28
2022-11-16T01:21:36.380Z,97879.59
2022-11-16T01:24:04.484Z,97877.72
2022-11-16T01:26:32.334Z,97884.19
2022-11-16T01:29:00.735Z,97872.63
2022-11-16T01:31:32.431Z,97866.38
2022-11-16T01:34:02.419Z,97870.31
2022-11-16T01:36:31.234Z,97869.81
2022-11-16T01:39:02.673Z,97869.69
2022-11-16T01:41:36.573Z,97866.25
2022-11-16T01:44:26.923Z,97871.91
2022-11-16T01:46:58.827Z,97865.94
2022-11-16T01:49:29.472Z,97863.91
2022-11-16T01:52:01.807Z,97862.78
2022-11-16T01:54:38.998Z,97863.03
2022-11-16T01:57:10.226Z,97865.03
2022-11-16T01:59:48.274Z,97860.78
2022-11-16T02:02:20.436Z,97852.84
2022-11-16T02:04:50.253Z,97851.13
2022-11-16T02:08:01.602Z,97854.41
2022-11-16T02:10:45.723Z,97841.00
2022-11-16T02:13:23.127Z,97838.91
2022-11-16T02:15:56.548Z,97840.84
2022-11-16T02:18:36.664Z,97841.63
2022-11-16T02:21:36.260Z,97837.41
2022-11-16T02:24:33.039Z,97829.03
2022-11-16T02:27:28.949Z,97830.81
2022-11-16T02:29:58.894Z,97830.53
2022-11-16T02:32:32.077Z,97822.03
2022-11-16T02:35:06.184Z,97814.72
2022-11-16T02:37:38.797Z,97814.16
2022-11-16T02:40:10.810Z,97813.13
2022-11-16T02:42:43.083Z,97810.06
2022-11-16T02:45:18.446Z,97824.06
2022-11-16T02:47:48.357Z,97819.19
2022-11-16T02:50:19.601Z,97816.81
2022-11-16T02:52:47.477Z,97813.56
2022-11-16T02:55:15.517Z,97811.94
2022-11-16T02:57:52.248Z,97820.31
2022-11-16T03:00:28.745Z,97809.66
2022-11-16T03:03:07.578Z,97814.78
2022-11-16T03:05:40.471Z,97820.53
2022-11-16T03:08:17.772Z,97804.25
2022-11-16T03:11:06.994Z,97809.47
2022-11-16T03:13:37.236Z,97801.31
2022-11-16T03:16:10.991Z,97797.25
2022-11-16T03:18:40.597Z,97793.59
2022-11-16T03:21:16.493Z,97787.53
2022-11-16T03:23:47.962Z,97789.00
2022-11-16T03:26:20.244Z,97782.66
2022-11-16T03:28:56.320Z,97791.94
2022-11-16T03:31:30.492Z,97789.47
2022-11-16T03:34:05.467Z,97798.78
2022-11-16T03:36:36.746Z,97800.22
2022-11-16T03:39:09.822Z,97797.41
2022-11-16T03:41:40.990Z,97789.78
2022-11-16T03:44:11.524Z,97780.97
2022-11-16T03:46:42.772Z,97774.38
2022-11-16T03:49:12.780Z,97770.88
2022-11-16T03:51:41.629Z,97765.50
2022-11-16T03:54:09.420Z,97766.19
2022-11-16T03:56:37.436Z,97754.75
2022-11-16T03:59:05.244Z,97760.75
2022-11-16T04:01:33.296Z,97761.19
2022-11-16T04:04:02.909Z,97756.59
2022-11-16T04:06:48.121Z,97756.72
2022-11-16T04:09:33.293Z,97752.59
2022-11-16T04:12:18.587Z,97744.84
2022-11-16T04:15:03.961Z,97750.72
2022-11-16T04:17:51.807Z,97748.41
2022-11-16T04:20:39.301Z,97751.97
2022-11-16T04:23:28.827Z,97754.75
2022-11-16T04:25:56.850Z,97743.16
2022-11-16T04:28:29.290Z,97745.94
2022-11-16T04:31:20.446Z,97753.06
2022-11-16T04:34:19.803Z,97741.81
2022-11-16T04:37:10.991Z,97747.66
2022-11-16T04:39:40.397Z,97747.03
2022-11-16T04:42:15.669Z,97740.59
2022-11-16T04:45:03.322Z,97747.47
2022-11-16T04:47:40.851Z,97749.41
2022-11-16T04:50:09.337Z,97751.41
2022-11-16T04:52:38.534Z,97745.94
2022-11-16T04:55:11.180Z,97747.72
2022-11-16T04:57:39.052Z,97741.84
2022-11-16T05:00:08.638Z,97743.28
2022-11-16T05:02:38.152Z,97741.41
2022-11-16T05:05:07.562Z,97736.44
2022-11-16T05:07:39.311Z,97737.31
2022-11-16T05:10:13.946Z,97740.59
2022-11-16T05:12:42.318Z,97741.84
2022-11-16T05:15:11.755Z,97734.47
2022-11-16T05:17:40.305Z,97735.31
2022-11-16T05:20:30.935Z,97734.06
2022-11-16T05:23:05.390Z,97729.50
2022-11-16T05:25:37.186Z,97730.38
2022-11-16T05:28:08.164Z,97726.97
2022-11-16T05:30:40.298Z,97722.75
2022-11-16T05:33:08.573Z,97725.94
2022-11-16T05:35:40.516Z,97722.03
2022-11-16T05:38:09.827Z,97725.53
2022-11-16T05:40:42.417Z,97740.03
2022-11-16T05:43:10.312Z,97733.19
2022-11-16T05:45:43.928Z,97732.66
2022-11-16T05:48:14.121Z,97731.97
2022-11-16T05:50:43.166Z,97738.09
2022-11-16T05:53:20.051Z,97733.44
2022-11-16T05:55:48.910Z,97742.75
2022-11-16T05:58:17.719Z,97734.53
2022-11-16T06:00:47.294Z,97736.06
2022-11-16T06:03:16.653Z,97736.53
2022-11-16T06:05:44.598Z,97725.66
2022-11-16T06:08:14.914Z,97728.97
2022-11-16T06:10:44.697Z,97728.63
2022-11-16T06:13:12.729Z,97720.19
2022-11-16T06:15:41.189Z,97743.81
2022-11-16T06:18:10.476Z,97756.75
2022-11-16T06:20:40.006Z,97760.91
2022-11-16T06:23:08.488Z,97770.47
2022-11-16T06:25:39.626Z,97779.81
2022-11-16T06:28:08.983Z,97768.28
2022-11-16T06:30:38.099Z,97757.25
2022-11-16T06:33:07.022Z,97757.50
2022-11-16T06:35:35.307Z,97749.59
2022-11-16T06:38:03.786Z,97762.06
2022-11-16T06:40:32.684Z,97771.38
2022-11-16T06:43:01.890Z,97776.44
2022-11-16T06:45:31.794Z,97773.44
2022-11-16T06:48:01.788Z,97774.03
2022-11-16T06:50:30.069Z,97779.38
2022-11-16T06:53:00.772Z,97774.66
2022-11-16T06:55:30.271Z,97770.06
2022-11-16T06:57:58.209Z,97775.84
2022-11-16T07:00:26.646Z,97786.00
2022-11-16T07:02:56.163Z,97777.78
2022-11-16T07:05:24.422Z,97784.63
2022-11-16T07:07:54.847Z,97790.81
2022-11-16T07:10:23.405Z,97793.16
2022-11-16T07:12:51.262Z,97786.22
2022-11-16T07:15:21.576Z,97786.00
2022-11-16T07:17:49.521Z,97792.28
2022-11-16T07:20:19.419Z,97795.50
2022-11-16T07:22:47.923Z,97800.16
2022-11-16T07:25:18.289Z,97799.50
2022-11-16T07:27:46.740Z,97804.91
2022-11-16T07:30:15.354Z,97805.66
2022-11-16T07:33:06.912Z,97808.16
2022-11-16T07:36:15.752Z,97813.19
2022-11-16T07:38:43.985Z,97821.41
2022-11-16T07:41:13.775Z,97826.06
2022-11-16T07:43:53.041Z,97831.53
2022-11-16T07:46:45.899Z,97837.75
2022-11-16T07:49:15.738Z,97840.75
2022-11-16T07:51:51.249Z,97849.31
2022-11-16T07:54:45.417Z,97841.16
2022-11-16T07:57:14.370Z,97838.44
2022-11-16T07:59:43.223Z,97837.47
2022-11-16T08:02:11.429Z,97835.31
2022-11-16T08:04:41.697Z,97845.22
2022-11-16T08:07:11.802Z,97840.28
2022-11-16T08:09:50.015Z,97842.59
2022-11-16T08:12:18.499Z,97846.34
2022-11-16T08:14:47.738Z,97843.47
2022-11-16T08:17:15.895Z,97850.28
2022-11-16T08:19:44.846Z,97848.78
2022-11-16T08:22:17.294Z,97847.94
2022-11-16T08:24:46.739Z,97844.84
2022-11-16T08:27:16.974Z,97848.72
2022-11-16T08:29:47.832Z,97855.69
2022-11-16T08:32:15.740Z,97859.63
2022-11-16T08:34:45.070Z,97863.66
2022-11-16T08:37:13.560Z,97863.97
2022-11-16T08:39:46.672Z,97858.03
2022-11-16T08:42:14.607Z,97851.38
2022-11-16T08:44:46.906Z,97853.25
2022-11-16T08:47:17.043Z,97850.31
2022-11-16T08:49:49.906Z,97860.38
2022-11-16T08:52:20.106Z,97867.09
2022-11-16T08:54:51.024Z,97858.38
2022-11-16T08:57:19.185Z,97859.78
2022-11-16T08:59:58.952Z,97856.69
2022-11-16T09:02:52.511Z,97856.81
2022-11-16T09:05:20.722Z,97856.53
2022-11-16T09:07:48.561Z,97861.66
2022-11-16T09:10:19.044Z,97862.66
2022-11-16T09:12:46.872Z,97860.34
2022-11-16T09:15:14.732Z,97865.84
2022-11-16T09:17:42.592Z,97864.91
2022-11-16T09:20:10.669Z,97870.81
2022-11-16T09:22:38.568Z,97876.09
2022-11-16T09:25:07.578Z,97890.72
2022-11-16T09:27:37.096Z,97885.56
2022-11-16T09:30:05.664Z,97888.84
2022-11-16T09:32:33.521Z,97890.72
2022-11-16T09:35:01.324Z,97894.41
2022-11-16T09:37:29.051Z,97894.19
2022-11-16T09:39:57.766Z,97895.81
2022-11-16T09:42:36.574Z,97899.47
2022-11-16T09:45:22.820Z,97902.19
2022-11-16T09:47:53.968Z,97907.50
2022-11-16T09:50:35.113Z,97901.41
2022-11-16T09:53:14.524Z,97906.31
2022-11-16T09:55:48.622Z,97893.16
2022-11-16T09:58:20.214Z,97902.47
2022-11-16T10:00:55.826Z,97910.25
2022-11-16T10:03:26.387Z,97905.94
2022-11-16T10:05:58.215Z,97915.91
2022-11-16T10:08:37.000Z,97914.34
2022-11-16T10:11:36.818Z,97918.09
2022-11-16T10:14:23.987Z,97912.91
2022-11-16T10:17:03.739Z,97906.63
2022-11-16T10:19:38.754Z,97905.41
2022-11-16T10:22:21.063Z,97901.34
2022-11-16T10:24:57.722Z,97890.56
2022-11-16T10:27:50.984Z,97891.88
2022-11-16T10:30:20.450Z,97896.44
2022-11-16T10:32:54.534Z,97896.31
2022-11-16T10:35:28.630Z,97896.53
2022-11-16T10:37:59.042Z,97895.16
2022-11-16T10:40:29.111Z,97888.69
2022-11-16T10:43:11.369Z,97890.84
2022-11-16T10:45:44.258Z,97892.41
2022-11-16T10:48:24.043Z,97887.31
2022-11-16T10:50:53.712Z,97889.56
2022-11-16T10:53:28.857Z,97898.44
2022-11-16T10:56:12.602Z,97890.91
2022-11-16T10:58:52.306Z,97881.38
2022-11-16T11:01:32.982Z,97876.97
2022-11-16T11:04:21.020Z,97878.44
2022-11-16T11:06:52.307Z,97890.00
2022-11-16T11:09:26.697Z,97887.88
2022-11-16T11:12:17.800Z,97885.38
2022-11-16T11:14:59.780Z,97884.00
2022-11-16T11:17:27.615Z,97876.28
2022-11-16T11:20:02.066Z,97882.03
2022-11-16T11:22:30.799Z,97881.50
2022-11-16T11:24:59.014Z,97879.84
2022-11-16T11:27:32.252Z,97886.31
2022-11-16T11:30:00.841Z,97878.19
2022-11-16T11:32:33.942Z,97880.66
2022-11-16T11:35:04.202Z,97883.66
2022-11-16T11:37:34.551Z,97874.88
2022-11-16T11:40:21.275Z,97886.97
2022-11-16T11:43:00.566Z,97879.69
2022-11-16T11:45:38.205Z,97879.38
2022-11-16T11:48:22.074Z,97884.50
2022-11-16T11:50:54.947Z,97876.16
2022-11-16T11:53:36.799Z,97880.09
2022-11-16T11:56:05.529Z,97876.31
2022-11-16T11:58:36.032Z,97877.09
2022-11-16T12:01:11.266Z,97863.59
2022-11-16T12:04:00.759Z,97864.94
2022-11-16T12:06:36.197Z,97867.44
2022-11-16T12:09:20.886Z,97864.78
2022-11-16T12:12:02.029Z,97877.47
2022-11-16T12:14:50.749Z,97860.00
2022-11-16T12:17:30.447Z,97859.38
2022-11-16T12:20:27.270Z,97867.50
2022-11-16T12:23:28.528Z,97860.41
2022-11-16T12:26:04.676Z,97859.88
2022-11-16T12:28:50.882Z,97860.81
2022-11-16T12:31:47.561Z,97865.88
2022-11-16T12:34:23.228Z,97865.47
2022-11-16T12:37:00.745Z,97855.47
2022-11-16T12:39:35.866Z,97859.94
2022-11-16T12:42:18.703Z,97851.63
2022-11-16T12:45:14.369Z,97844.13
2022-11-16T12:47:56.240Z,97843.88
2022-11-16T12:50:45.410Z,97837.44
2022-11-16T12:53:44.955Z,97827.28
2022-11-16T12:56:23.166Z,97821.78
2022-11-16T12:59:14.093Z,97829.00
2022-11-16T13:01:49.143Z,97826.41
2022-11-16T13:04:21.319Z,97818.16
2022-11-16T13:06:53.597Z,97830.25
2022-11-16T13:09:24.661Z,97835.19
2022-11-16T13:11:57.412Z,97832.19
2022-11-16T13:14:30.112Z,97837.19
2022-11-16T13:16:59.828Z,97827.25
2022-11-16T13:19:28.850Z,97835.53
2022-11-16T13:22:03.160Z,97823.66
2022-11-16T13:24:50.947Z,97829.38
2022-11-16T13:27:39.122Z,97813.13
2022-11-16T13:30:17.662Z,97815.94
2022-11-16T13:32:57.830Z,97826.41
2022-11-16T13:35:25.732Z,97821.47
2022-11-16T13:37:53.578Z,97819.34
2022-11-16T13:40:29.729Z,97815.22
2022-11-16T13:43:17.598Z,97814.19
2022-11-16T13:45:55.514Z,97809.75
2022-11-16T13:48:26.762Z,97803.13
2022-11-16T13:50:57.018Z,97809.13
2022-11-16T13:54:25.285Z,97814.66
2022-11-16T13:56:18.483Z,97814.91
2022-11-16T13:58:50.225Z,97818.94
2022-11-16T14:01:19.532Z,97814.44
2022-11-16T14:03:48.436Z,97812.13
2022-11-16T14:06:49.790Z,97810.47
2022-11-16T14:09:42.503Z,97807.63
2022-11-16T14:12:56.284Z,97809.13
2022-11-16T14:15:28.390Z,97801.13
2022-11-16T14:17:59.946Z,97798.47
2022-11-16T14:20:53.053Z,97808.59
2022-11-16T14:23:30.047Z,97800.16
2022-11-16T14:26:10.959Z,97797.13
2022-11-16T14:28:54.691Z,97791.00
2022-11-16T14:31:25.827Z,97786.97
2022-11-16T14:33:55.970Z,97783.34
2022-11-16T14:36:45.616Z,97772.31
2022-11-16T14:39:33.018Z,97766.72
2022-11-16T14:42:04.238Z,97770.13
2022-11-16T14:44:35.377Z,97769.66
2022-11-16T14:47:05.448Z,97775.88
2022-11-16T14:49:36.986Z,97784.00
2022-11-16T14:52:08.200Z,97786.59
2022-11-16T14:54:40.265Z,97781.31
2022-11-16T14:57:13.253Z,97789.78
2022-11-16T14:59:41.082Z,97777.06
2022-11-16T15:02:20.484Z,97788.63
2022-11-16T15:04:49.885Z,97792.66
2022-11-16T15:07:18.758Z,97784.97
2022-11-16T15:09:50.330Z,97778.97
2022-11-16T15:12:38.424Z,97777.13
2022-11-16T15:15:09.207Z,97773.75
2022-11-16T15:17:40.127Z,97780.09
2022-11-16T15:20:18.129Z,97781.03
2022-11-16T15:22:47.379Z,97773.41
2022-11-16T15:25:27.545Z,97770.84
2022-11-16T15:27:57.124Z,97766.56
2022-11-16T15:30:26.602Z,97768.09
2022-11-16T15:32:56.324Z,97764.84
2022-11-16T15:35:26.431Z,97758.53
2022-11-16T15:38:06.010Z,97766.97
2022-11-16T15:40:35.432Z,97765.97
2022-11-16T15:43:06.154Z,97765.91
2022-11-16T15:45:35.077Z,97758.50
2022-11-16T15:48:05.237Z,97758.00
2022-11-16T15:50:33.289Z,97759.06
2022-11-16T15:53:01.121Z,97771.22
2022-11-16T15:55:35.146Z,97763.47
2022-11-16T15:58:13.874Z,97760.06
2022-11-16T16:00:43.020Z,97754.13
2022-11-16T16:03:22.520Z,97750.75
2022-11-16T16:05:51.186Z,97756.34
2022-11-16T16:08:27.810Z,97763.69
2022-11-16T16:11:03.765Z,97768.66
2022-11-16T16:13:33.972Z,97764.78
2022-11-16T16:16:26.051Z,97756.66
2022-11-16T16:18:58.170Z,97761.19
2022-11-16T16:21:27.375Z,97761.59
2022-11-16T16:23:57.063Z,97754.97
2022-11-16T16:26:24.820Z,97757.81
2022-11-16T16:28:52.957Z,97756.94
2022-11-16T16:31:21.099Z,97760.97
2022-11-16T16:33:49.529Z,97757.88
2022-11-16T16:36:18.673Z,97761.00
2022-11-16T16:38:46.440Z,97756.09
2022-11-16T16:41:24.055Z,97753.13
2022-11-16T16:43:52.597Z,97740.25
2022-11-16T16:46:20.482Z,97747.56
2022-11-16T16:48:49.383Z,97742.09
2022-11-16T16:51:18.872Z,97743.06
2022-11-16T16:53:46.640Z,97748.28
2022-11-16T16:56:16.429Z,97752.03
2022-11-16T16:58:44.335Z,97748.31
2022-11-16T17:01:12.463Z,97742.97
2022-11-16T17:03:40.358Z,97731.63
2022-11-16T17:06:08.195Z,97732.78
2022-11-16T17:08:38.174Z,97723.97
2022-11-16T17:11:06.529Z,97729.84
2022-11-16T17:13:34.638Z,97734.50
2022-11-16T17:16:05.920Z,97738.81
2022-11-16T17:18:33.714Z,97733.41
2022-11-16T17:21:05.462Z,97734.47
2022-11-16T17:23:33.762Z,97722.66
2022-11-16T17:26:05.981Z,97724.91
2022-11-16T17:28:33.796Z,97722.19
2022-11-16T17:31:03.260Z,97736.84
2022-11-16T17:33:34.572Z,97738.44
2022-11-16T17:36:03.890Z,97735.34
2022-11-16T17:38:32.202Z,97719.72
2022-11-16T17:41:09.420Z,97716.81
2022-11-16T17:43:37.726Z,97718.59
2022-11-16T17:46:06.899Z,97710.72
2022-11-16T17:48:35.001Z,97703.56
2022-11-16T17:51:03.032Z,97709.06
2022-11-16T17:53:32.843Z,97705.06
2022-11-16T17:56:01.332Z,97708.56
2022-11-16T17:58:31.626Z,97698.84
2022-11-16T18:01:00.067Z,97700.75
2022-11-16T18:03:28.281Z,97693.09
2022-11-16T18:06:03.700Z,97686.53
2022-11-16T18:08:32.359Z,97692.56
2022-11-16T18:11:04.859Z,97693.22
2022-11-16T18:13:34.619Z,97681.91
2022-11-16T18:16:04.973Z,97678.47
2022-11-16T18:18:33.320Z,97682.47
2022-11-16T18:21:01.258Z,97679.09
2022-11-16T18:23:29.257Z,97681.91
2022-11-16T18:25:57.457Z,97675.91
2022-11-16T18:28:25.284Z,97674.44
2022-11-16T18:31:03.488Z,97673.94
2022-11-16T18:33:31.477Z,97676.53
2022-11-16T18:35:59.497Z,97668.19
2022-11-16T18:38:27.300Z,97669.28
2022-11-16T18:41:06.651Z,97670.97
2022-11-16T18:43:35.269Z,97662.44
2022-11-16T18:46:04.852Z,97662.97
2022-11-16T18:48:32.669Z,97662.16
2022-11-16T18:51:01.000Z,97664.09
2022-11-16T18:53:29.710Z,97657.63
2022-11-16T18:55:58.426Z,97654.41
2022-11-16T19:01:18.365Z,97645.16
2022-11-16T19:03:46.255Z,97626.28
2022-11-16T19:06:15.280Z,97621.31
2022-11-16T19:08:44.330Z,97623.19
2022-11-16T19:11:13.941Z,97612.03
2022-11-16T19:13:43.160Z,97613.44
2022-11-16T19:16:13.020Z,97605.28
2022-11-16T19:18:42.270Z,97604.94
2022-11-16T19:21:12.001Z,97606.53
2022-11-16T19:23:41.151Z,97615.22
2022-11-16T19:26:09.120Z,97609.06
2022-11-16T19:28:37.747Z,97617.31
2022-11-16T19:31:10.517Z,97601.50
2022-11-16T19:33:38.668Z,97602.28
2022-11-16T19:36:10.215Z,97602.47
2022-11-16T19:38:38.675Z,97598.13
2022-11-16T19:41:07.799Z,97601.31
2022-11-16T19:43:35.879Z,97605.69
2022-11-16T19:46:05.336Z,97612.41
2022-11-16T19:48:33.873Z,97618.16
2022-11-16T19:51:06.475Z,97617.31
2022-11-16T19:53:36.808Z,97608.81
2022-11-16T19:56:04.839Z,97613.41
2022-11-16T19:58:33.152Z,97597.19
2022-11-16T20:01:02.307Z,97609.03
2022-11-16T20:03:31.286Z,97611.72
2022-11-16T20:06:07.583Z,97604.69
2022-11-16T20:08:36.861Z,97617.28
2022-11-16T20:11:11.787Z,97612.00
2022-11-16T20:13:39.865Z,97613.16
2022-11-16T20:16:09.733Z,97613.88
2022-11-16T20:18:38.036Z,97628.25
2022-11-16T20:21:07.317Z,97626.56
2022-11-16T20:23:37.539Z,97615.84
2022-11-16T20:26:06.426Z,97621.75
2022-11-16T20:28:38.279Z,97624.56
2022-11-16T20:31:09.890Z,97622.53
2022-11-16T20:33:38.232Z,97630.75
2022-11-16T20:36:09.464Z,97612.59
2022-11-16T20:38:39.773Z,97607.88
2022-11-16T20:41:12.114Z,97601.16
2022-11-16T20:43:40.319Z,97599.81
2022-11-16T20:46:08.818Z,97606.00
2022-11-16T20:48:36.834Z,97610.47
2022-11-16T20:51:05.088Z,97601.94
2022-11-16T20:53:33.750Z,97606.91
2022-11-16T20:56:03.785Z,97601.16
2022-11-16T20:58:32.139Z,97598.53
2022-11-16T21:01:01.024Z,97601.03
2022-11-16T21:03:29.362Z,97602.91
2022-11-16T21:05:57.255Z,97613.34
2022-11-16T21:08:25.691Z,97611.94
2022-11-16T21:10:53.710Z,97604.25
2022-11-16T21:13:40.585Z,97607.34
2022-11-16T21:16:11.318Z,97593.81
2022-11-16T21:18:40.063Z,97590.75
2022-11-16T21:21:09.920Z,97580.31
2022-11-16T21:23:39.077Z,97573.63
2022-11-16T21:26:08.501Z,97567.59
2022-11-16T21:28:37.879Z,97553.81
2022-11-16T21:31:07.627Z,97556.56
2022-11-16T21:33:35.803Z,97551.78
2022-11-16T21:36:05.599Z,97561.41
2022-11-16T21:38:33.960Z,97556.59
2022-11-16T21:41:02.221Z,97555.47
2022-11-16T21:43:30.058Z,97545.06
2022-11-16T21:46:04.796Z,97549.28
2022-11-16T21:48:34.443Z,97557.13
2022-11-16T21:51:02.642Z,97553.56
2022-11-16T21:53:30.735Z,97554.66
2022-11-16T21:55:58.708Z,97554.16
2022-11-16T21:58:27.041Z,97550.78
2022-11-16T22:00:56.028Z,97552.47
2022-11-16T22:03:26.466Z,97540.41
2022-11-16T22:06:11.966Z,97535.66
2022-11-16T22:08:40.490Z,97538.25
2022-11-16T22:11:08.990Z,97531.19
2022-11-16T22:13:37.275Z,97533.59
2022-11-16T22:16:06.443Z,97524.03
2022-11-16T22:18:36.508Z,97529.97
2022-11-16T22:21:04.917Z,97523.63
2022-11-16T22:23:33.531Z,97519.47
2022-11-16T22:26:24.277Z,97511.50
2022-11-16T22:28:53.177Z,97515.69
2022-11-16T22:31:21.029Z,97515.69
2022-11-16T22:33:54.564Z,97521.72
2022-11-16T22:36:22.355Z,97515.25
2022-11-16T22:38:50.185Z,97509.81
2022-11-16T22:41:18.066Z,97505.63
2022-11-16T22:43:45.822Z,97508.28
2022-11-16T22:46:13.598Z,97506.97
2022-11-16T22:48:41.980Z,97502.28
2022-11-16T22:51:20.141Z,97497.22
2022-11-16T22:53:48.386Z,97489.13
2022-11-16T22:56:16.243Z,97485.59
2022-11-16T22:58:44.153Z,97485.28
2022-11-16T23:01:12.130Z,97486.38
2022-11-16T23:03:40.298Z,97488.25
2022-11-16T23:06:09.145Z,97478.94
2022-11-16T23:08:40.007Z,97485.56
2022-11-16T23:11:26.442Z,97475.06
2022-11-16T23:14:12.805Z,97470.75
2022-11-16T23:16:41.487Z,97466.44
2022-11-16T23:19:24.700Z,97471.38
2022-11-16T23:22:09.911Z,97468.84
2022-11-16T23:24:56.453Z,97457.06
2022-11-16T23:27:30.824Z,97452.16
2022-11-16T23:29:59.405Z,97446.25
2022-11-16T23:32:27.249Z,97455.75
2022-11-16T23:34:55.275Z,97457.16
2022-11-16T23:37:23.090Z,97455.28
2022-11-16T23:39:52.197Z,97456.44
2022-11-16T23:42:37.687Z,97453.19
2022-11-16T23:45:06.644Z,97450.31
2022-11-16T23:47:34.432Z,97450.28
2022-11-16T23:50:02.313Z,97447.47
2022-11-16T23:52:30.134Z,97440.44
2022-11-16T23:54:59.307Z,97442.19
2022-11-16T23:57:27.147Z,97436.44
2022-11-16T23:59:54.897Z,97427.16
